Terminal Aerodrome Forecast
Issued by NWS Cleveland, OH

Home | Current Version | Previous Version | Text Only | Print | Product List | Glossary Off
Versions: 1 2 3 4 5 6 7 8 9 10 11 12 13 14 15 16 17 18

000
FTUS41 KCLE 181720
TAFCAK
TAF
KCAK 181720Z 1818/1918 VRB04KT P6SM SCT035
     FM190000 10006KT P6SM -RA OVC025
     FM190200 04008KT 5SM -RA OVC012
     FM190400 03007KT 2SM -RA OVC004
     FM190800 32010KT 6SM -SHSN OVC005
     FM191200 32012G25KT P6SM VCSH OVC015
     FM191600 32018G33KT P6SM VCSH OVC020=

USA.gov is the U.S. government's official web portal to all federal, state and local government web resources and services.